createdAt,value
2023-10-05T10:32:50.589Z,96101.52
2023-10-05T10:35:28.565Z,96103.09
2023-10-05T10:38:00.493Z,96102.41
2023-10-05T10:40:29.080Z,96099.75
2023-10-05T10:43:04.854Z,96095.52
2023-10-05T10:45:35.346Z,96090.80
2023-10-05T10:48:10.858Z,96086.96
2023-10-05T10:50:39.448Z,96077.05
2023-10-05T10:53:18.551Z,96076.63
2023-10-05T10:55:53.338Z,96075.13
2023-10-05T10:58:26.002Z,96070.54
2023-10-05T11:00:59.052Z,96069.53
2023-10-05T11:03:28.556Z,96063.12
2023-10-05T11:05:57.415Z,96060.88
2023-10-05T11:08:32.030Z,96059.23
2023-10-05T11:11:12.377Z,96057.03
2023-10-05T11:14:07.515Z,96053.03
2023-10-05T11:16:45.764Z,96049.77
2023-10-05T11:19:30.123Z,96049.89
2023-10-05T11:22:06.622Z,96042.81
2023-10-05T11:24:40.940Z,96050.73
2023-10-05T11:27:16.114Z,96041.20
2023-10-05T11:29:47.570Z,96036.13
2023-10-05T11:32:45.536Z,96032.67
2023-10-05T11:35:20.153Z,96033.15
2023-10-05T11:38:01.366Z,96029.73
2023-10-05T11:40:32.971Z,96030.97
2023-10-05T11:43:14.754Z,96029.10
2023-10-05T11:46:24.920Z,96029.42
2023-10-05T11:48:56.576Z,96027.53
2023-10-05T11:51:42.769Z,96028.64
2023-10-05T11:54:12.696Z,96029.16
2023-10-05T11:56:41.828Z,96028.85
2023-10-05T11:59:12.886Z,96030.13
2023-10-05T12:01:42.166Z,96027.91
2023-10-05T12:04:11.565Z,96026.66
2023-10-05T12:06:41.270Z,96023.66
2023-10-05T12:09:29.013Z,96026.55
2023-10-05T12:11:59.331Z,96027.05
2023-10-05T12:14:28.492Z,96021.86
2023-10-05T12:16:58.387Z,96017.46
2023-10-05T12:19:30.211Z,96019.90
2023-10-05T12:22:15.268Z,96013.45
2023-10-05T12:24:43.965Z,96014.15
2023-10-05T12:27:15.342Z,96008.74
2023-10-05T12:29:46.471Z,96009.67
2023-10-05T12:32:15.436Z,96004.48
2023-10-05T12:34:49.997Z,96000.52
2023-10-05T12:37:19.425Z,96004.30
2023-10-05T12:39:48.872Z,96002.98
2023-10-05T12:42:20.223Z,95993.09
2023-10-05T12:44:50.046Z,95992.95
2023-10-05T12:47:18.378Z,95992.27
2023-10-05T12:49:46.921Z,95984.98
2023-10-05T12:52:17.664Z,95982.00
2023-10-05T12:54:45.785Z,95980.31
2023-10-05T12:57:21.448Z,95981.67
2023-10-05T12:59:51.325Z,95980.67
2023-10-05T13:02:20.498Z,95976.67
2023-10-05T13:04:49.019Z,95976.10
2023-10-05T13:07:23.239Z,95976.11
2023-10-05T13:10:01.923Z,95977.71
2023-10-05T13:12:32.855Z,95974.84
2023-10-05T13:15:05.078Z,95971.48
2023-10-05T13:17:39.298Z,95967.70
2023-10-05T13:20:16.603Z,95965.75
2023-10-05T13:22:49.856Z,95956.45
2023-10-05T13:25:18.300Z,95950.34
2023-10-05T13:27:46.684Z,95947.80
2023-10-05T13:30:23.889Z,95942.16
2023-10-05T13:33:10.240Z,95943.02
2023-10-05T13:35:38.484Z,95939.46
2023-10-05T13:38:08.819Z,95942.56
2023-10-05T13:40:37.634Z,95939.14
2023-10-05T13:43:06.374Z,95942.01
2023-10-05T13:45:34.897Z,95939.14
2023-10-05T13:48:04.115Z,95938.35
2023-10-05T13:50:32.679Z,95943.92
2023-10-05T13:53:02.739Z,95940.94
2023-10-05T13:55:34.326Z,95937.63
2023-10-05T13:58:04.114Z,95935.23
2023-10-05T14:00:32.580Z,95925.65
2023-10-05T14:03:04.310Z,95923.65
2023-10-05T14:05:33.112Z,95921.35
2023-10-05T14:08:04.060Z,95923.14
2023-10-05T14:10:32.791Z,95924.20
2023-10-05T14:13:01.326Z,95923.59
2023-10-05T14:15:29.589Z,95920.34
2023-10-05T14:17:58.314Z,95923.33
2023-10-05T14:20:26.885Z,95919.01
2023-10-05T14:22:57.056Z,95925.05
2023-10-05T14:25:27.325Z,95922.66
2023-10-05T14:27:55.610Z,95921.35
2023-10-05T14:30:24.872Z,95917.04
2023-10-05T14:32:53.530Z,95915.39
2023-10-05T14:35:22.436Z,95915.11
2023-10-05T14:37:56.317Z,95919.57
2023-10-05T14:40:25.456Z,95919.97
2023-10-05T14:42:57.119Z,95920.77
2023-10-05T14:45:28.324Z,95918.53
2023-10-05T14:47:59.617Z,95915.95
2023-10-05T14:50:27.938Z,95910.89
2023-10-05T14:52:57.006Z,95909.89
2023-10-05T14:55:27.004Z,95907.70
2023-10-05T14:57:56.502Z,95905.44
2023-10-05T15:00:28.081Z,95909.20
2023-10-05T15:02:56.983Z,95907.77
2023-10-05T15:05:25.218Z,95906.78
2023-10-05T15:07:59.853Z,95914.13
2023-10-05T15:10:29.200Z,95914.60
2023-10-05T15:12:58.279Z,95914.71
2023-10-05T15:15:26.543Z,95908.85
2023-10-05T15:17:55.718Z,95912.41
2023-10-05T15:20:24.209Z,95912.27
2023-10-05T15:22:55.899Z,95915.50
2023-10-05T15:25:25.309Z,95922.72
2023-10-05T15:27:57.569Z,95925.08
2023-10-05T15:30:25.619Z,95926.83
2023-10-05T15:32:53.727Z,95930.20
2023-10-05T15:35:23.790Z,95932.36
2023-10-05T15:37:52.636Z,95936.70
2023-10-05T15:40:21.718Z,95941.20
2023-10-05T15:42:50.994Z,95943.94
2023-10-05T15:45:24.737Z,95944.30
2023-10-05T15:47:56.020Z,95944.17
2023-10-05T15:50:30.009Z,95942.73
2023-10-05T15:53:01.194Z,95944.61
2023-10-05T15:55:32.602Z,95948.14
2023-10-05T15:58:08.325Z,95952.29
2023-10-05T16:00:37.502Z,95951.54
2023-10-05T16:03:12.608Z,95949.93
2023-10-05T16:05:43.245Z,95950.79
2023-10-05T16:08:11.773Z,95954.19
2023-10-05T16:10:40.846Z,95954.59
2023-10-05T16:13:09.745Z,95950.84
2023-10-05T16:15:40.611Z,95954.96
2023-10-05T16:18:11.729Z,95953.81
2023-10-05T16:20:42.555Z,95957.14
2023-10-05T16:23:12.908Z,95957.08
2023-10-05T16:25:41.886Z,95955.64
2023-10-05T16:28:10.360Z,95958.38
2023-10-05T16:30:38.868Z,95965.52
2023-10-05T16:33:07.889Z,95971.16
2023-10-05T16:35:36.811Z,95973.98
2023-10-05T16:38:06.252Z,95974.33
2023-10-05T16:40:34.913Z,95975.70
2023-10-05T16:43:03.814Z,95978.55
2023-10-05T16:45:31.988Z,95980.17
2023-10-05T16:48:00.200Z,95989.52
2023-10-05T16:50:29.302Z,95986.73
2023-10-05T16:52:57.988Z,95994.05
2023-10-05T16:55:26.714Z,95992.02
2023-10-05T16:57:56.332Z,95995.58
2023-10-05T17:00:24.869Z,95994.73
2023-10-05T17:02:55.507Z,95994.62
2023-10-05T17:05:30.072Z,95993.85
2023-10-05T17:08:04.379Z,95999.22
2023-10-05T17:10:32.648Z,96000.99
2023-10-05T17:13:00.981Z,96003.58
2023-10-05T17:15:29.473Z,95997.83
2023-10-05T17:17:57.783Z,95993.85
2023-10-05T17:20:25.994Z,95992.95
2023-10-05T17:22:54.498Z,95987.52
2023-10-05T17:25:23.472Z,95991.07
2023-10-05T17:27:54.857Z,95993.71
2023-10-05T17:30:23.824Z,95994.75
2023-10-05T17:32:52.871Z,95993.71
2023-10-05T17:35:24.237Z,95990.40
2023-10-05T17:37:54.260Z,95991.35
2023-10-05T17:40:23.059Z,95988.58
2023-10-05T17:42:52.339Z,95986.57
2023-10-05T17:45:20.817Z,95991.11
2023-10-05T17:47:52.857Z,95995.73
2023-10-05T17:50:20.985Z,95990.82
2023-10-05T17:52:50.040Z,95991.33
2023-10-05T17:55:18.751Z,95988.30
2023-10-05T17:57:47.034Z,95991.11
2023-10-05T18:00:17.427Z,95991.98
2023-10-05T18:02:50.291Z,95989.30
2023-10-05T18:05:23.698Z,95990.75
2023-10-05T18:07:51.886Z,95997.98
2023-10-05T18:10:20.216Z,96000.09
2023-10-05T18:12:48.384Z,96002.23
2023-10-05T18:15:18.568Z,96003.65
2023-10-05T18:17:49.733Z,96008.29
2023-10-05T18:20:20.916Z,96010.52
2023-10-05T18:22:49.043Z,96013.67
2023-10-05T18:25:20.518Z,96019.36
2023-10-05T18:27:48.770Z,96024.94
2023-10-05T18:30:19.164Z,96023.17
2023-10-05T18:32:47.351Z,96018.31
2023-10-05T18:35:15.442Z,96015.06
2023-10-05T18:37:43.609Z,96012.44
2023-10-05T18:40:12.173Z,96012.99
2023-10-05T18:42:45.290Z,96016.65
2023-10-05T18:45:14.736Z,96012.09
2023-10-05T18:47:43.847Z,96011.45
2023-10-05T18:50:14.091Z,96008.72
2023-10-05T18:52:45.014Z,96007.61
2023-10-05T18:55:13.279Z,96009.54
2023-10-05T18:57:41.375Z,96009.14
2023-10-05T19:00:12.666Z,96008.81
2023-10-05T19:02:43.250Z,96013.08
2023-10-05T19:05:11.749Z,96017.96
2023-10-05T19:07:44.786Z,96022.03
2023-10-05T19:10:15.983Z,96022.44
2023-10-05T19:12:46.131Z,96026.43
2023-10-05T19:15:17.351Z,96029.58
2023-10-05T19:17:45.707Z,96039.41
2023-10-05T19:20:13.858Z,96045.27
2023-10-05T19:22:42.000Z,96050.90
2023-10-05T19:25:12.240Z,96056.73
2023-10-05T19:27:41.083Z,96056.81
2023-10-05T19:30:11.769Z,96057.98
2023-10-05T19:32:41.320Z,96054.95
2023-10-05T19:35:10.630Z,96054.65
2023-10-05T19:37:38.853Z,96062.13
2023-10-05T19:40:08.424Z,96064.38
2023-10-05T19:42:36.517Z,96063.89
2023-10-05T19:45:05.994Z,96067.58
2023-10-05T19:47:34.142Z,96070.32
2023-10-05T19:50:02.514Z,96080.11
2023-10-05T19:52:30.742Z,96081.88
2023-10-05T19:54:58.889Z,96079.83
2023-10-05T19:57:27.112Z,96081.45
2023-10-05T19:59:57.468Z,96081.85
2023-10-05T20:02:25.769Z,96082.02
2023-10-05T20:04:53.862Z,96082.98
2023-10-05T20:07:22.029Z,96084.60
2023-10-05T20:09:50.137Z,96083.70
2023-10-05T20:12:18.271Z,96084.33
2023-10-05T20:14:47.549Z,96082.23
2023-10-05T20:17:15.834Z,96083.92
2023-10-05T20:19:44.732Z,96076.73
2023-10-05T20:22:12.716Z,96076.05
2023-10-05T20:24:42.003Z,96070.05
2023-10-05T20:27:16.794Z,96071.06
2023-10-05T20:29:45.847Z,96066.69
2023-10-05T20:32:15.066Z,96066.01
2023-10-05T20:34:44.524Z,96062.48
2023-10-05T20:37:13.971Z,96062.39
2023-10-05T20:39:45.210Z,96059.16
2023-10-05T20:42:13.359Z,96057.82
2023-10-05T20:44:41.462Z,96054.64
2023-10-05T20:47:09.764Z,96056.88
2023-10-05T20:49:38.945Z,96058.96
2023-10-05T20:52:07.402Z,96056.23
2023-10-05T20:54:35.498Z,96059.63
2023-10-05T20:57:05.393Z,96058.65
2023-10-05T20:59:33.818Z,96059.48
2023-10-05T21:02:02.123Z,96055.48
2023-10-05T21:04:33.149Z,96057.44
2023-10-05T21:07:01.917Z,96058.61
2023-10-05T21:09:30.617Z,96060.99
2023-10-05T21:11:59.403Z,96056.64
2023-10-05T21:14:29.148Z,96060.98
2023-10-05T21:16:57.584Z,96058.16
2023-10-05T21:19:26.049Z,96060.91
2023-10-05T21:21:54.285Z,96058.69
2023-10-05T21:24:22.679Z,96061.12
2023-10-05T21:26:50.800Z,96063.33
2023-10-05T21:29:19.069Z,96060.38
2023-10-05T21:31:47.341Z,96060.89
2023-10-05T21:34:16.478Z,96062.20
2023-10-05T21:36:45.555Z,96061.02
2023-10-05T21:39:13.959Z,96064.23
2023-10-05T21:41:42.700Z,96062.27
2023-10-05T21:44:10.772Z,96060.23
2023-10-05T21:46:39.156Z,96067.54
2023-10-05T21:49:09.070Z,96064.30
2023-10-05T21:51:37.554Z,96061.54
2023-10-05T21:54:07.064Z,96060.77
2023-10-05T21:56:36.259Z,96057.88
2023-10-05T21:59:04.773Z,96054.42
2023-10-05T22:01:34.041Z,96059.80
2023-10-05T22:04:02.373Z,96060.89
2023-10-05T22:06:31.086Z,96064.48
2023-10-05T22:08:59.117Z,96067.42
2023-10-05T22:11:27.246Z,96065.56
2023-10-05T22:13:55.350Z,96065.81
2023-10-05T22:16:23.723Z,96066.23
2023-10-05T22:18:51.913Z,96065.42
2023-10-05T22:21:20.027Z,96066.43
2023-10-05T22:23:48.055Z,96067.52
2023-10-05T22:26:16.113Z,96067.92
2023-10-05T22:28:44.213Z,96065.78
2023-10-05T22:31:12.345Z,96068.31
2023-10-05T22:33:40.441Z,96073.48
2023-10-05T22:36:09.598Z,96073.66
2023-10-05T22:38:44.259Z,96074.91
2023-10-05T22:41:13.446Z,96074.13
2023-10-05T22:43:44.288Z,96072.42
2023-10-05T22:46:13.805Z,96073.82
2023-10-05T22:48:43.088Z,96078.13
2023-10-05T22:51:16.481Z,96079.73
2023-10-05T22:53:46.630Z,96084.48
2023-10-05T22:56:14.815Z,96081.60
2023-10-05T22:58:43.008Z,96080.39
2023-10-05T23:01:11.414Z,96082.09
2023-10-05T23:03:41.128Z,96080.17
2023-10-05T23:06:09.877Z,96077.44
2023-10-05T23:08:38.002Z,96076.23
2023-10-05T23:11:09.135Z,96078.65
2023-10-05T23:13:41.998Z,96082.38
2023-10-05T23:16:10.107Z,96080.47
2023-10-05T23:18:38.343Z,96080.95
2023-10-05T23:21:08.512Z,96081.59
2023-10-05T23:23:39.230Z,96080.54
2023-10-05T23:26:08.257Z,96079.29
2023-10-05T23:28:36.961Z,96078.61
2023-10-05T23:31:12.589Z,96076.41
2023-10-05T23:33:42.795Z,96076.82
2023-10-05T23:36:10.879Z,96079.16
2023-10-05T23:38:40.886Z,96082.41
2023-10-05T23:41:12.050Z,96077.53
2023-10-05T23:43:40.194Z,96079.73
2023-10-05T23:46:08.457Z,96076.42
2023-10-05T23:48:36.495Z,96078.31
2023-10-05T23:51:08.692Z,96079.05
2023-10-05T23:53:37.553Z,96077.98
2023-10-05T23:56:10.644Z,96077.84
2023-10-05T23:58:39.235Z,96081.61
